createdAt,value
2019-01-18T00:00:09.494Z,5.60
2019-01-18T00:02:37.923Z,3.05
2019-01-18T00:05:06.838Z,3.62
2019-01-18T00:07:35.287Z,6.72
2019-01-18T00:10:05.943Z,4.20
2019-01-18T00:12:34.350Z,6.58
2019-01-18T00:15:02.763Z,3.72
2019-01-18T00:17:31.199Z,4.90
2019-01-18T00:19:59.626Z,5.78
2019-01-18T00:22:28.049Z,8.20
2019-01-18T00:24:59.467Z,5.62
2019-01-18T00:27:27.910Z,4.60
2019-01-18T00:29:56.327Z,6.45
2019-01-18T00:32:24.807Z,6.37
2019-01-18T00:34:53.225Z,6.65
2019-01-18T00:37:21.670Z,7.75
2019-01-18T00:39:50.077Z,5.60
2019-01-18T00:42:18.509Z,4.85
2019-01-18T00:44:46.950Z,15.90
2019-01-18T00:47:15.388Z,13.25
2019-01-18T00:49:43.830Z,4.35
2019-01-18T00:52:12.272Z,5.55
2019-01-18T00:54:44.357Z,3.35
2019-01-18T00:57:12.847Z,4.92
2019-01-18T00:59:41.320Z,3.75
2019-01-18T01:02:09.939Z,2.70
2019-01-18T01:04:38.524Z,9.10
2019-01-18T01:07:06.922Z,2.52
2019-01-18T01:09:40.011Z,4.72
2019-01-18T01:12:08.698Z,4.50
2019-01-18T01:14:37.107Z,2.67
2019-01-18T01:17:05.673Z,3.42
2019-01-18T01:19:34.063Z,2.58
2019-01-18T01:22:02.494Z,4.00
2019-01-18T01:24:30.898Z,2.40
2019-01-18T01:26:59.341Z,5.03
2019-01-18T01:29:27.770Z,3.90
2019-01-18T01:31:56.239Z,7.15
2019-01-18T01:34:24.686Z,5.65
2019-01-18T01:36:53.357Z,3.47
2019-01-18T01:39:21.861Z,4.95
2019-01-18T01:41:53.618Z,3.12
2019-01-18T01:44:22.039Z,7.62
2019-01-18T01:46:50.474Z,6.65
2019-01-18T01:49:18.903Z,3.80
2019-01-18T01:51:47.359Z,5.17
2019-01-18T01:54:15.777Z,4.45
2019-01-18T01:56:50.588Z,3.27
2019-01-18T01:59:19.094Z,5.85
2019-01-18T02:01:47.611Z,3.83
2019-01-18T02:04:16.022Z,4.20
2019-01-18T02:06:44.456Z,5.92
2019-01-18T02:09:12.891Z,4.78
2019-01-18T02:11:44.327Z,6.08
2019-01-18T02:14:12.733Z,5.87
2019-01-18T02:16:41.178Z,3.80
2019-01-18T02:19:09.626Z,3.62
2019-01-18T02:21:38.068Z,5.22
2019-01-18T02:24:06.583Z,3.92
2019-01-18T02:26:38.470Z,8.35
2019-01-18T02:29:06.880Z,3.33
2019-01-18T02:31:35.313Z,3.40
2019-01-18T02:34:03.743Z,3.17
2019-01-18T02:36:32.145Z,3.20
2019-01-18T02:39:00.751Z,4.00
2019-01-18T02:41:29.168Z,4.83
2019-01-18T02:43:57.764Z,9.45
2019-01-18T02:46:26.198Z,8.10
2019-01-18T02:48:54.636Z,7.15
2019-01-18T02:51:23.055Z,3.92
2019-01-18T02:53:51.762Z,4.53
2019-01-18T02:56:23.542Z,8.45
2019-01-18T02:58:51.955Z,10.78
2019-01-18T03:01:20.369Z,4.45
2019-01-18T03:03:48.819Z,6.05
2019-01-18T03:06:17.243Z,2.15
2019-01-18T03:08:45.728Z,4.67
2019-01-18T03:11:14.147Z,6.62
2019-01-18T03:13:42.573Z,5.17
2019-01-18T03:16:11.078Z,2.47
2019-01-18T03:18:39.542Z,4.25
2019-01-18T03:21:07.931Z,3.50
2019-01-18T03:23:36.395Z,3.65
2019-01-18T03:26:04.858Z,16.35
2019-01-18T03:28:33.315Z,4.30
2019-01-18T03:31:01.770Z,4.10
2019-01-18T03:33:30.252Z,5.20
2019-01-18T03:35:58.680Z,11.60
2019-01-18T03:38:27.140Z,10.95
2019-01-18T03:40:55.677Z,3.83
2019-01-18T03:43:24.099Z,5.83
2019-01-18T03:45:52.535Z,4.10
2019-01-18T03:48:20.978Z,6.37
2019-01-18T03:50:49.398Z,5.25
2019-01-18T03:53:17.782Z,2.87
2019-01-18T03:55:46.233Z,8.18
2019-01-18T03:58:14.664Z,2.65
2019-01-18T04:00:43.079Z,3.30
2019-01-18T04:03:11.499Z,3.72
2019-01-18T04:05:39.958Z,2.72
2019-01-18T04:08:08.446Z,4.28
2019-01-18T04:10:36.963Z,3.72
2019-01-18T04:13:05.391Z,6.35
2019-01-18T04:15:33.891Z,8.25
2019-01-18T04:18:05.604Z,4.25
2019-01-18T04:20:34.029Z,5.80
2019-01-18T04:23:02.476Z,6.22
2019-01-18T04:25:31.553Z,5.05
2019-01-18T04:27:59.967Z,5.90
2019-01-18T04:30:33.263Z,5.05
2019-01-18T04:32:58.764Z,4.72
2019-01-18T04:35:27.331Z,4.72
2019-01-18T04:37:55.926Z,9.93
2019-01-18T04:40:27.221Z,5.28
2019-01-18T04:42:56.716Z,6.28
2019-01-18T04:45:25.388Z,6.80
2019-01-18T04:47:53.956Z,7.45
2019-01-18T04:50:27.391Z,4.00
2019-01-18T04:52:55.999Z,11.85
2019-01-18T04:55:24.490Z,5.10
2019-01-18T04:57:52.926Z,4.42
2019-01-18T05:00:26.391Z,5.87
2019-01-18T05:02:54.898Z,5.60
2019-01-18T05:05:23.410Z,5.65
2019-01-18T05:07:51.932Z,4.25
2019-01-18T05:10:22.962Z,6.62
2019-01-18T05:12:51.378Z,3.60
2019-01-18T05:15:26.472Z,4.78
2019-01-18T05:17:54.878Z,3.60
2019-01-18T05:20:23.363Z,4.67
2019-01-18T05:22:51.883Z,6.10
2019-01-18T05:25:20.288Z,6.72
2019-01-18T05:27:48.770Z,7.00
2019-01-18T05:30:38.094Z,8.58
2019-01-18T05:33:06.623Z,6.67
2019-01-18T05:35:35.135Z,7.42
2019-01-18T05:38:03.716Z,8.60
2019-01-18T05:40:32.151Z,5.83
2019-01-18T05:43:00.579Z,6.05
2019-01-18T05:45:32.513Z,30.00
2019-01-18T05:48:00.976Z,10.10
2019-01-18T05:50:30.066Z,11.70
2019-01-18T05:53:00.130Z,7.10
2019-01-18T05:55:28.569Z,4.00
2019-01-18T05:57:57.044Z,5.60
2019-01-18T06:00:32.758Z,6.45
2019-01-18T06:03:01.245Z,10.30
2019-01-18T06:05:30.251Z,6.08
2019-01-18T06:07:58.779Z,5.08
2019-01-18T06:10:27.342Z,7.15
2019-01-18T06:12:55.905Z,6.10
2019-01-18T06:15:24.356Z,6.25
2019-01-18T06:17:52.832Z,5.10
2019-01-18T06:20:21.590Z,9.08
2019-01-18T06:22:50.058Z,6.33
2019-01-18T06:25:18.471Z,8.80
2019-01-18T06:27:47.071Z,8.63
2019-01-18T06:30:27.308Z,5.37
2019-01-18T06:32:55.760Z,5.92
2019-01-18T06:35:24.261Z,6.40
2019-01-18T06:37:52.712Z,6.97
2019-01-18T06:40:23.046Z,10.10
2019-01-18T06:42:51.593Z,6.72
2019-01-18T06:45:28.919Z,12.65
2019-01-18T06:48:01.583Z,11.05
2019-01-18T06:50:30.052Z,11.95
2019-01-18T06:52:58.551Z,9.15
2019-01-18T06:55:27.006Z,10.20
2019-01-18T06:57:55.419Z,8.18
2019-01-18T07:00:34.940Z,8.30
2019-01-18T07:03:03.507Z,5.60
2019-01-18T07:05:31.967Z,9.43
2019-01-18T07:08:00.412Z,6.22
2019-01-18T07:10:28.891Z,6.70
2019-01-18T07:12:57.355Z,6.35
2019-01-18T07:15:25.789Z,5.65
2019-01-18T07:17:54.248Z,13.15
2019-01-18T07:20:22.795Z,7.75
2019-01-18T07:22:51.340Z,4.33
2019-01-18T07:25:25.194Z,9.25
2019-01-18T07:27:53.723Z,7.62
2019-01-18T07:30:24.988Z,4.12
2019-01-18T07:32:57.564Z,8.08
2019-01-18T07:35:26.080Z,6.70
2019-01-18T07:37:54.604Z,9.35
2019-01-18T07:40:23.043Z,6.28
2019-01-18T07:42:51.464Z,7.55
2019-01-18T07:45:22.880Z,6.80
2019-01-18T07:47:51.319Z,8.55
2019-01-18T07:50:20.370Z,9.85
2019-01-18T07:52:49.018Z,5.17
2019-01-18T07:55:17.445Z,7.22
2019-01-18T07:57:45.970Z,8.70
2019-01-18T08:00:17.148Z,6.55
2019-01-18T08:02:45.702Z,12.07
2019-01-18T08:05:14.144Z,6.37
2019-01-18T08:07:43.183Z,5.72
2019-01-18T08:10:14.340Z,6.10
2019-01-18T08:12:42.838Z,4.85
2019-01-18T08:15:14.597Z,6.72
2019-01-18T08:17:47.517Z,6.08
2019-01-18T08:20:18.800Z,5.45
2019-01-18T08:22:47.364Z,7.40
2019-01-18T08:25:16.436Z,7.30
2019-01-18T08:27:45.132Z,7.15
2019-01-18T08:30:16.498Z,12.82
2019-01-18T08:32:47.956Z,13.25
2019-01-18T08:35:18.419Z,6.00
2019-01-18T08:37:46.944Z,6.62
2019-01-18T08:40:24.189Z,10.65
2019-01-18T08:42:52.823Z,12.50
2019-01-18T08:45:40.746Z,5.92
2019-01-18T08:48:13.324Z,4.15
2019-01-18T08:50:42.486Z,4.35
2019-01-18T08:53:10.971Z,7.35
2019-01-18T08:55:39.483Z,4.83
2019-01-18T08:58:08.003Z,4.28
2019-01-18T09:00:36.418Z,5.03
2019-01-18T09:03:09.051Z,6.50
2019-01-18T09:05:37.476Z,7.50
2019-01-18T09:08:06.069Z,6.03
2019-01-18T09:10:36.647Z,5.62
2019-01-18T09:13:05.100Z,4.60
2019-01-18T09:15:33.603Z,7.78
2019-01-18T09:18:04.847Z,6.05
2019-01-18T09:20:33.288Z,8.05
2019-01-18T09:23:01.820Z,6.97
2019-01-18T09:25:30.232Z,7.65
2019-01-18T09:27:58.745Z,15.00
2019-01-18T09:30:31.194Z,7.15
2019-01-18T09:32:59.751Z,8.63
2019-01-18T09:35:28.423Z,8.28
2019-01-18T09:37:59.100Z,7.42
2019-01-18T09:40:30.092Z,5.97
2019-01-18T09:42:58.661Z,9.48
2019-01-18T09:45:27.066Z,6.50
2019-01-18T09:47:55.560Z,7.00
2019-01-18T09:50:32.488Z,11.55
2019-01-18T09:53:02.795Z,6.70
2019-01-18T09:55:31.201Z,7.60
2019-01-18T09:57:59.667Z,11.35
2019-01-18T10:00:31.173Z,6.83
2019-01-18T10:02:59.748Z,5.28
2019-01-18T10:05:28.675Z,13.98
2019-01-18T10:07:57.093Z,5.90
2019-01-18T10:10:25.548Z,7.22
2019-01-18T10:12:55.088Z,9.70
2019-01-18T10:15:31.948Z,7.05
2019-01-18T10:18:00.990Z,4.03
2019-01-18T10:20:29.671Z,4.95
2019-01-18T10:22:58.336Z,6.03
2019-01-18T10:25:26.783Z,3.10
2019-01-18T10:27:55.232Z,4.30
2019-01-18T10:30:26.005Z,5.78
2019-01-18T10:32:54.484Z,5.28
2019-01-18T10:35:24.551Z,7.62
2019-01-18T10:37:53.068Z,12.43
2019-01-18T10:40:21.637Z,4.47
2019-01-18T10:42:50.742Z,4.40
2019-01-18T10:45:20.231Z,4.28
2019-01-18T10:47:49.824Z,4.42
2019-01-18T10:50:24.157Z,6.83
2019-01-18T10:52:52.688Z,5.83
2019-01-18T10:55:21.250Z,3.05
2019-01-18T10:57:49.752Z,2.20
2019-01-18T11:00:23.070Z,4.08
2019-01-18T11:02:52.652Z,8.18
2019-01-18T11:05:22.327Z,2.80
2019-01-18T11:07:50.851Z,3.65
2019-01-18T11:10:19.410Z,4.35
2019-01-18T11:12:47.936Z,4.58
2019-01-18T11:15:18.975Z,3.12
2019-01-18T11:17:47.431Z,4.03
2019-01-18T11:20:41.268Z,4.28
2019-01-18T11:23:09.882Z,3.42
2019-01-18T11:25:38.325Z,4.70
2019-01-18T11:28:06.782Z,2.87
2019-01-18T11:30:35.298Z,2.85
2019-01-18T11:33:03.763Z,1.12
2019-01-18T11:35:35.701Z,2.20
2019-01-18T11:38:04.398Z,2.40
2019-01-18T11:40:32.845Z,7.53
2019-01-18T11:43:01.287Z,2.45
2019-01-18T11:45:29.786Z,4.00
2019-01-18T11:47:58.293Z,2.58
2019-01-18T11:50:32.223Z,6.42
2019-01-18T11:53:00.639Z,3.15
2019-01-18T11:55:29.092Z,4.10
2019-01-18T11:57:57.572Z,4.15
2019-01-18T12:00:30.084Z,10.90
2019-01-18T12:02:58.528Z,3.37
2019-01-18T12:05:29.865Z,5.17
2019-01-18T12:07:58.357Z,2.62
2019-01-18T12:10:29.096Z,9.80
2019-01-18T12:12:57.527Z,16.45
2019-01-18T12:15:26.417Z,5.00
2019-01-18T12:17:54.852Z,4.70
2019-01-18T12:20:37.380Z,6.80
2019-01-18T12:23:07.456Z,2.65
2019-01-18T12:25:37.911Z,2.60
2019-01-18T12:28:06.137Z,4.87
2019-01-18T12:30:36.360Z,4.80
2019-01-18T12:33:07.976Z,2.98
2019-01-18T12:35:36.465Z,3.37
2019-01-18T12:38:05.410Z,3.15
2019-01-18T12:40:38.272Z,3.92
2019-01-18T12:43:12.100Z,3.15
2019-01-18T12:45:41.600Z,2.55
2019-01-18T12:48:10.375Z,5.95
2019-01-18T12:50:39.036Z,3.30
2019-01-18T12:53:10.747Z,7.42
2019-01-18T12:55:41.926Z,4.08
2019-01-18T12:58:10.505Z,2.55
2019-01-18T13:00:39.007Z,9.28
2019-01-18T13:03:07.421Z,3.52
2019-01-18T13:05:39.186Z,3.87
2019-01-18T13:08:10.908Z,4.90
2019-01-18T13:10:39.384Z,3.77
2019-01-18T13:13:07.900Z,3.70
2019-01-18T13:15:51.450Z,3.52
2019-01-18T13:18:19.965Z,13.38
2019-01-18T13:20:48.501Z,3.98
2019-01-18T13:23:21.206Z,5.10
2019-01-18T13:25:49.640Z,6.65
2019-01-18T13:28:18.100Z,2.40
2019-01-18T13:30:46.520Z,1.67
2019-01-18T13:33:15.039Z,4.20
2019-01-18T13:35:43.543Z,2.55
2019-01-18T13:38:12.100Z,7.22
2019-01-18T13:40:40.556Z,8.48
2019-01-18T13:43:08.993Z,2.90
2019-01-18T13:45:37.404Z,2.65
2019-01-18T13:48:05.911Z,2.35
2019-01-18T13:50:34.371Z,5.22
2019-01-18T13:53:06.783Z,9.20
2019-01-18T13:55:35.284Z,9.13
2019-01-18T13:58:05.754Z,4.50
2019-01-18T14:00:34.156Z,4.05
2019-01-18T14:03:02.612Z,4.08
2019-01-18T14:05:35.455Z,7.83
2019-01-18T14:08:08.341Z,3.87
2019-01-18T14:10:36.805Z,9.15
2019-01-18T14:13:05.334Z,3.35
2019-01-18T14:15:33.890Z,2.05
2019-01-18T14:18:07.430Z,4.55
2019-01-18T14:20:35.900Z,3.72
2019-01-18T14:23:04.473Z,2.12
2019-01-18T14:25:32.995Z,3.80
2019-01-18T14:28:01.431Z,5.90
2019-01-18T14:30:29.943Z,10.18
2019-01-18T14:33:02.260Z,6.92
2019-01-18T14:35:30.744Z,9.33
2019-01-18T14:38:02.368Z,9.53
2019-01-18T14:40:30.910Z,4.15
2019-01-18T14:42:59.419Z,7.00
2019-01-18T14:45:33.474Z,4.20
2019-01-18T14:48:01.890Z,4.90
2019-01-18T14:50:30.435Z,6.70
2019-01-18T14:52:58.907Z,3.22
2019-01-18T14:55:27.469Z,6.83
2019-01-18T14:57:56.099Z,3.42
2019-01-18T15:00:29.113Z,2.40
2019-01-18T15:03:02.322Z,3.05
2019-01-18T15:05:27.812Z,5.50
2019-01-18T15:07:57.647Z,2.95
2019-01-18T15:10:26.540Z,7.53
2019-01-18T15:13:04.234Z,5.35
2019-01-18T15:15:32.820Z,5.40
2019-01-18T15:18:01.299Z,4.45
2019-01-18T15:20:31.858Z,3.45
2019-01-18T15:23:00.569Z,4.55
2019-01-18T15:25:29.040Z,4.90
2019-01-18T15:27:57.527Z,3.75
2019-01-18T15:30:28.881Z,4.95
2019-01-18T15:32:57.307Z,5.10
2019-01-18T15:35:28.299Z,7.08
2019-01-18T15:37:57.021Z,6.80
2019-01-18T15:40:28.084Z,4.70
2019-01-18T15:42:58.413Z,4.80
2019-01-18T15:45:26.956Z,3.30
2019-01-18T15:47:56.908Z,6.08
2019-01-18T15:50:28.234Z,4.33
2019-01-18T15:52:59.644Z,6.70
2019-01-18T15:55:28.532Z,4.55
2019-01-18T15:57:57.056Z,4.60
2019-01-18T16:00:36.715Z,4.40
2019-01-18T16:03:05.862Z,7.85
2019-01-18T16:05:34.431Z,5.10
2019-01-18T16:08:03.063Z,9.93
2019-01-18T16:10:31.463Z,5.22
2019-01-18T16:12:59.984Z,8.83
2019-01-18T16:15:34.231Z,7.08
2019-01-18T16:18:04.560Z,5.35
2019-01-18T16:20:33.009Z,4.90
2019-01-18T16:23:01.558Z,6.50
2019-01-18T16:25:30.228Z,5.65
2019-01-18T16:27:58.694Z,9.75
2019-01-18T16:30:27.744Z,9.15
2019-01-18T16:32:57.712Z,5.78
2019-01-18T16:35:26.660Z,10.20
2019-01-18T16:37:57.387Z,8.23
2019-01-18T16:40:35.957Z,6.85
2019-01-18T16:43:10.234Z,7.28
2019-01-18T16:45:38.871Z,8.43
2019-01-18T16:48:07.519Z,8.58
2019-01-18T16:50:36.090Z,9.78
2019-01-18T16:53:05.285Z,7.40
2019-01-18T16:55:33.780Z,8.05
2019-01-18T16:58:12.127Z,6.58
2019-01-18T17:00:43.972Z,10.65
2019-01-18T17:03:19.804Z,13.15
2019-01-18T17:05:48.317Z,12.05
2019-01-18T17:08:18.423Z,9.38
2019-01-18T17:10:46.837Z,8.65
2019-01-18T17:13:18.731Z,8.20
2019-01-18T17:15:47.290Z,10.93
2019-01-18T17:18:19.242Z,13.38
2019-01-18T17:20:48.710Z,8.93
2019-01-18T17:23:17.173Z,11.10
2019-01-18T17:25:51.635Z,11.20
2019-01-18T17:28:20.172Z,11.83
2019-01-18T17:30:49.044Z,6.45
2019-01-18T17:33:17.517Z,9.08
2019-01-18T17:35:54.760Z,8.65
2019-01-18T17:38:42.878Z,12.58
2019-01-18T17:41:21.886Z,12.37
2019-01-18T17:44:11.220Z,10.55
2019-01-18T17:46:51.639Z,12.47
2019-01-18T17:49:39.647Z,7.28
2019-01-18T17:52:39.598Z,27.37
2019-01-18T17:55:25.615Z,14.80
2019-01-18T17:58:06.138Z,10.90
2019-01-18T18:00:39.725Z,13.95
2019-01-18T18:03:25.363Z,8.63
2019-01-18T18:06:02.873Z,9.15
2019-01-18T18:08:49.482Z,10.10
2019-01-18T18:11:23.831Z,9.55
2019-01-18T18:14:02.276Z,13.30
2019-01-18T18:16:53.582Z,12.10
2019-01-18T18:19:25.321Z,10.58
2019-01-18T18:22:14.904Z,15.15
2019-01-18T18:24:49.382Z,19.05
2019-01-18T18:27:29.440Z,13.43
2019-01-18T18:30:13.169Z,15.03
2019-01-18T18:32:59.568Z,15.53
2019-01-18T18:35:48.991Z,14.55
2019-01-18T18:38:29.623Z,16.05
2019-01-18T18:41:26.561Z,13.58
2019-01-18T18:44:13.159Z,9.63
2019-01-18T18:46:49.811Z,9.10
2019-01-18T18:49:30.556Z,14.68
2019-01-18T18:52:23.244Z,15.78
2019-01-18T18:54:57.670Z,15.63
2019-01-18T18:57:37.972Z,16.73
2019-01-18T19:00:12.057Z,19.20
2019-01-18T19:02:55.618Z,18.10
2019-01-18T19:05:46.490Z,20.20
2019-01-18T19:08:49.627Z,14.80
2019-01-18T19:11:21.183Z,23.80
2019-01-18T19:14:11.840Z,31.20
2019-01-18T19:16:46.412Z,14.15
2019-01-18T19:19:34.790Z,16.75
2019-01-18T19:22:27.512Z,18.60
2019-01-18T19:25:33.823Z,17.60
2019-01-18T19:28:16.004Z,15.93
2019-01-18T19:30:59.172Z,16.45
2019-01-18T19:33:45.471Z,18.02
2019-01-18T19:36:41.112Z,16.87
2019-01-18T19:39:12.724Z,17.40
2019-01-18T19:41:49.806Z,15.83
2019-01-18T19:44:27.059Z,12.95
2019-01-18T19:46:58.602Z,14.78
2019-01-18T19:49:39.205Z,24.30
2019-01-18T19:52:10.833Z,18.90
2019-01-18T19:54:45.180Z,20.30
2019-01-18T19:57:34.336Z,20.95
2019-01-18T20:00:14.611Z,25.65
2019-01-18T20:02:46.383Z,20.27
2019-01-18T20:05:34.330Z,19.85
2019-01-18T20:08:18.000Z,24.47
2019-01-18T20:10:55.552Z,26.42
2019-01-18T20:16:47.082Z,19.85
2019-01-18T20:19:27.048Z,21.05
2019-01-18T20:22:13.730Z,30.37
2019-01-18T20:24:53.883Z,28.80
2019-01-18T20:27:42.027Z,17.85
2019-01-18T20:30:19.457Z,21.60
2019-01-18T20:32:53.643Z,18.40
2019-01-18T20:35:46.085Z,25.37
2019-01-18T20:38:43.107Z,16.27
2019-01-18T20:41:36.692Z,16.97
2019-01-18T20:44:13.988Z,18.10
2019-01-18T20:46:48.445Z,20.43
2019-01-18T20:49:39.315Z,19.00
2019-01-18T20:52:10.957Z,21.07
2019-01-18T20:54:51.415Z,18.70
2019-01-18T20:57:27.491Z,19.80
2019-01-18T21:00:05.409Z,19.17
2019-01-18T21:03:01.522Z,19.23
2019-01-18T21:05:50.622Z,24.50
2019-01-18T21:08:22.207Z,24.77
2019-01-18T21:11:02.420Z,16.07
2019-01-18T21:13:34.059Z,16.90
2019-01-18T21:16:17.594Z,18.02
2019-01-18T21:19:08.919Z,12.37
2019-01-18T21:22:12.047Z,11.38
2019-01-18T21:24:57.872Z,16.12
2019-01-18T21:27:53.423Z,13.55
2019-01-18T21:30:34.290Z,19.20
2019-01-18T21:33:22.160Z,15.83
2019-01-18T21:36:16.062Z,14.23
2019-01-18T21:38:53.345Z,16.12
2019-01-18T21:41:41.225Z,13.40
2019-01-18T21:44:30.701Z,27.42
2019-01-18T21:47:19.817Z,16.67
2019-01-18T21:49:57.151Z,8.83
2019-01-18T21:55:37.893Z,11.57
2019-01-18T21:58:19.523Z,12.73
2019-01-18T22:00:48.231Z,13.03
2019-01-18T22:03:38.142Z,15.20
2019-01-18T22:06:24.057Z,13.22
2019-01-18T22:08:55.631Z,13.60
2019-01-18T22:12:00.429Z,16.37
2019-01-18T22:14:53.159Z,12.90
2019-01-18T22:17:36.411Z,15.48
2019-01-18T22:20:22.730Z,14.65
2019-01-18T22:23:00.280Z,9.95
2019-01-18T22:25:53.845Z,14.18
2019-01-18T22:28:46.492Z,16.65
2019-01-18T22:31:20.714Z,10.10
2019-01-18T22:34:10.542Z,12.28
2019-01-18T22:36:54.023Z,13.38
2019-01-18T22:39:40.623Z,9.45
2019-01-18T22:42:24.332Z,12.33
2019-01-18T22:45:20.108Z,9.98
2019-01-18T22:48:03.423Z,16.15
2019-01-18T22:50:57.579Z,11.55
2019-01-18T22:53:46.902Z,12.18
2019-01-18T22:56:42.379Z,14.73
2019-01-18T22:59:25.850Z,19.00
2019-01-18T23:02:09.542Z,13.70
2019-01-18T23:04:55.522Z,12.05
2019-01-18T23:07:26.172Z,14.07
2019-01-18T23:10:06.874Z,11.83
2019-01-18T23:12:50.457Z,11.83
2019-01-18T23:15:47.497Z,18.80
2019-01-18T23:18:41.506Z,12.03
2019-01-18T23:21:35.479Z,14.03
2019-01-18T23:24:09.427Z,13.48
2019-01-18T23:27:02.343Z,18.77
2019-01-18T23:29:48.814Z,17.00
2019-01-18T23:32:42.416Z,11.57
2019-01-18T23:35:47.164Z,14.70
2019-01-18T23:38:27.675Z,11.85
2019-01-18T23:41:11.140Z,10.35
2019-01-18T23:43:51.454Z,5.85
2019-01-18T23:46:31.744Z,6.62
2019-01-18T23:49:09.875Z,6.83
2019-01-18T23:51:41.463Z,6.42
2019-01-18T23:54:44.576Z,7.50
2019-01-18T23:57:18.719Z,8.13
